Christopher G — WDB3864 — position and weather

sailwx.info

Track history (hours):
 
Tides and Currents Weather Stations Pressure Air Temp Water Temp Dewpoint Dewpoint Depression Visibility Wind Speed Wind Dir Waves Ship Positions

Christopher G

Owner: PACIFIC TUGBOAT SERVICE INC, SAN DIEGO, CA. More information available from US FCC via Universal Licensing System and Coast Guard Vessel Documentation Center.

Last reported at 2017-Oct-16 18:13 UTC. Time now 2017-Oct-17 20:23 UTC.
Position N 33°46' W 118°13'.

Length 23 m; draft 2 m.

Type: Ship (hazmat cat B). MMSI: 366892150.

Date/timePositionNaut miles runAvg speedWind from/ knotsBaromVisibWave heightAir tempDewpointWater temp
2017-Oct-16 18:13N 33°46' W 118°13'0 0.6
2017-Oct-16 18:00N 33°46' W 118°13'3 5.8
2017-Oct-16 17:30N 33°43' W 118°14'4 8.3
2017-Oct-16 17:00N 33°40' W 118°16'4 8.8
2017-Oct-16 16:31N 33°35' W 118°17'4 8.6
2017-Oct-16 16:00N 33°31' W 118°19'4 8.7
2017-Oct-16 15:30N 33°27' W 118°20'3 1.5
2017-Oct-16 13:22N 33°24' W 118°22'3 6.8
2017-Oct-16 13:00N 33°27' W 118°21'4 7.9
2017-Oct-16 12:30N 33°30' W 118°19'4 8.1
2017-Oct-16 12:00N 33°34' W 118°17'4 8.5
2017-Oct-16 11:31N 33°38' W 118°15'7 8.4
2017-Oct-16 10:44N 33°44' W 118°13'2 4.2
2017-Oct-16 10:22N 33°46' W 118°13'0 1.1
2017-Oct-16 10:00N 33°46' W 118°13'  
2017-Oct-13 00:57N 33°46' W 118°13'0 0.0
2017-Oct-13 00:29N 33°46' W 118°13'0 0.1
2017-Oct-13 00:00N 33°46' W 118°13'4 7.1
2017-Oct-12 23:29N 33°43' W 118°15'5 8.7
2017-Oct-12 22:56N 33°39' W 118°19'4 8.5
2017-Oct-12 22:26N 33°36' W 118°22'11 8.5
2017-Oct-12 21:10N 33°29' W 118°31'11 2.8
2017-Oct-12 17:20N 33°36' W 118°22'5 8.1
2017-Oct-12 16:43N 33°40' W 118°18'2 8.3
2017-Oct-12 16:28N 33°41' W 118°17'5 7.6
2017-Oct-12 15:49N 33°45' W 118°13'1 3.8
2017-Oct-12 15:30N 33°46' W 118°13'0 0.0
2017-Oct-12 14:27N 33°46' W 118°13'  
Track history (hours):
 
Tides and Currents Weather Stations Pressure Air Temp Water Temp Dewpoint Dewpoint Depression Visibility Wind Speed Wind Dir Waves Ship Positions

Christopher G

Owner: PACIFIC TUGBOAT SERVICE INC, SAN DIEGO, CA. More information available from US FCC via Universal Licensing System and Coast Guard Vessel Documentation Center.

Last reported at 2017-Oct-16 18:13 UTC. Time now 2017-Oct-17 20:23 UTC.
Position N 33°46' W 118°13'.

Length 23 m; draft 2 m.

Type: Ship (hazmat cat B). MMSI: 366892150.

Date/timePositionNaut miles runAvg speedWind from/ knotsBaromVisibWave heightAir tempDewpointWater temp
2017-Oct-16 18:13N 33°46' W 118°13'0 0.6
2017-Oct-16 18:00N 33°46' W 118°13'3 5.8
2017-Oct-16 17:30N 33°43' W 118°14'4 8.3
2017-Oct-16 17:00N 33°40' W 118°16'4 8.8
2017-Oct-16 16:31N 33°35' W 118°17'4 8.6
2017-Oct-16 16:00N 33°31' W 118°19'4 8.7
2017-Oct-16 15:30N 33°27' W 118°20'3 1.5
2017-Oct-16 13:22N 33°24' W 118°22'3 6.8
2017-Oct-16 13:00N 33°27' W 118°21'4 7.9
2017-Oct-16 12:30N 33°30' W 118°19'4 8.1
2017-Oct-16 12:00N 33°34' W 118°17'4 8.5
2017-Oct-16 11:31N 33°38' W 118°15'7 8.4
2017-Oct-16 10:44N 33°44' W 118°13'2 4.2
2017-Oct-16 10:22N 33°46' W 118°13'0 1.1
2017-Oct-16 10:00N 33°46' W 118°13'  
2017-Oct-13 00:57N 33°46' W 118°13'0 0.0
2017-Oct-13 00:29N 33°46' W 118°13'0 0.1
2017-Oct-13 00:00N 33°46' W 118°13'4 7.1
2017-Oct-12 23:29N 33°43' W 118°15'5 8.7
2017-Oct-12 22:56N 33°39' W 118°19'4 8.5
2017-Oct-12 22:26N 33°36' W 118°22'11 8.5
2017-Oct-12 21:10N 33°29' W 118°31'11 2.8
2017-Oct-12 17:20N 33°36' W 118°22'5 8.1
2017-Oct-12 16:43N 33°40' W 118°18'2 8.3
2017-Oct-12 16:28N 33°41' W 118°17'5 7.6
2017-Oct-12 15:49N 33°45' W 118°13'1 3.8
2017-Oct-12 15:30N 33°46' W 118°13'0 0.0
2017-Oct-12 14:27N 33°46' W 118°13'  

Dump ship's entire track history